MST,Max TemperatureF,Mean TemperatureF,Min TemperatureF,Max Dew PointF,MeanDew PointF,Min DewpointF,Max Humidity, Mean Humidity, Min Humidity, Max Sea Level PressureIn, Mean Sea Level PressureIn, Min Sea Level PressureIn, Max VisibilityMiles, Mean VisibilityMiles, Min VisibilityMiles, Max Wind SpeedMPH, Mean Wind SpeedMPH, Max Gust SpeedMPH,PrecipitationIn, CloudCover, Events, WindDirDegrees
2012-12-1,54,45,36,33,30,25,79,56,32,29.72,29.69,29.64,10,10,10,31,14,37,0.00,3,,235
2012-12-2,59,47,34,36,29,19,76,56,36,29.66,29.43,29.18,10,10,9,41,16,52,T,2,Rain,227
2012-12-3,46,39,32,19,18,17,56,44,31,30.10,29.91,29.64,10,10,10,37,20,44,0.00,0,,245
2012-12-4,49,37,24,31,25,16,74,57,39,30.12,29.96,29.82,10,10,10,31,15,39,T,3,Rain,218
2012-12-5,57,38,19,34,24,11,67,45,23,30.04,29.79,29.63,10,10,10,38,18,46,0.00,2,,257
2012-12-6,36,29,22,18,15,11,81,58,35,30.06,30.01,29.93,10,10,10,20,6,24,0.00,4,,257
2012-12-7,34,26,18,25,21,14,92,70,47,29.94,29.83,29.61,10,7,1,23,9,32,T,6,Snow,237
2012-12-8,32,14,-5,25,10,-6,95,79,63,30.43,29.92,29.57,10,3,0,29,12,36,T,7,Fog-Snow,285
2012-12-9,24,7,-10,14,2,-12,95,76,56,30.48,30.27,29.93,10,10,10,25,10,31,0.00,2,,182
2012-12-10,29,24,18,22,18,10,96,77,57,30.02,29.93,29.82,10,8,2,23,12,33,T,6,Snow,280
2012-12-11,39,28,16,26,21,9,69,62,54,29.91,29.63,29.51,10,10,10,29,15,36,0.00,5,,245
2012-12-12,35,30,25,32,28,25,100,85,70,29.88,29.69,29.54,10,5,0,14,4,17,T,8,Fog-Snow,261
2012-12-13,35,28,20,25,19,15,100,74,47,29.92,29.84,29.75,10,9,0,22,13,26,0.00,2,Fog,202
2012-12-14,38,29,20,25,20,15,81,67,52,29.76,29.70,29.60,10,10,10,22,8,25,0.00,4,,225
2012-12-15,33,22,11,17,13,9,80,65,49,29.87,29.79,29.64,10,10,10,15,4,23,0.00,2,,197
2012-12-16,34,27,19,18,13,8,68,58,47,29.74,29.66,29.60,10,10,10,24,14,30,0.00,2,,229
2012-12-17,39,28,16,25,18,5,64,56,47,29.57,29.41,29.31,10,9,3,30,15,37,T,4,Snow,219
2012-12-18,28,22,16,13,10,8,67,57,46,29.91,29.72,29.54,10,10,10,26,16,32,0.00,8,,264
2012-12-19,27,17,6,9,4,0,76,57,37,30.10,30.04,29.92,10,10,10,24,11,30,0.00,0,,241
2012-12-20,41,29,17,18,14,9,62,48,34,30.07,29.98,29.89,10,10,10,28,14,33,0.00,0,,227
2012-12-21,44,31,18,17,15,12,58,46,33,30.00,29.94,29.90,10,10,10,20,8,22,0.00,1,,196
2012-12-22,21,16,10,14,10,6,100,87,73,30.11,30.01,29.79,10,6,1,16,4,21,0.00,6,,63
2012-12-23,31,18,5,16,8,3,92,73,53,30.11,30.02,29.80,10,9,5,10,3,13,0.00,4,,315
2012-12-24,8,3,-2,3,-3,-6,96,88,79,30.50,30.13,29.86,10,3,0,16,7,21,0.03,8,Fog-Snow,282
2012-12-25,10,0,-11,2,-4,-10,87,78,69,30.49,30.30,30.07,10,9,2,14,3,16,T,5,Snow,98
2012-12-26,12,4,-4,5,1,-4,95,84,73,30.04,29.90,29.73,10,7,0,7,2,7,0.01,7,Fog-Snow,298
2012-12-27,26,16,6,16,10,2,92,80,68,30.03,30.00,29.96,10,10,10,9,2,9,0.00,5,,156
2012-12-28,28,21,14,18,13,7,84,71,57,30.12,30.06,29.98,10,10,9,14,8,17,T,3,,244
2012-12-29,30,19,7,16,9,3,80,64,47,30.14,30.07,29.93,10,10,10,10,5,12,0.00,1,,165
2012-12-30,27,16,4,20,16,4,100,84,68,30.17,30.07,29.96,10,7,1,12,5,14,0.02,6,Snow,240
2012-12-31,27,14,1,19,9,-1,95,75,55,30.19,30.16,30.11,10,10,10,16,5,18,T,3,,183